Time;durP1;ratioP1;P1;durP2;ratioP2;P2;SDS_P1;SDS_P2;PMS_P1;PMS_P2;Temp;Humidity;BMP_temperature;BMP_pressure;BME280_temperature;BME280_humidity;BME280_pressure;Samples;Min_cycle;Max_cycle;Signal;HPM_P1;HPM_P2
2022/08/03 00:00:28;;;;;;;;;8.00;7.60;;;;;20.28;58.32;99871.63;5137206;27;8844;-61
2022/08/03 00:02:55;;;;;;;;;7.60;7.60;;;;;20.25;58.82;99880.09;5137284;27;8985;-61
2022/08/03 00:05:23;;;;;;;;;7.00;7.00;;;;;20.17;58.67;99869.38;5137455;27;8822;-62
2022/08/03 00:07:51;;;;;;;;;5.00;4.20;;;;;20.14;58.82;99877.00;5137504;27;8988;-61
2022/08/03 00:10:19;;;;;;;;;4.20;4.20;;;;;20.10;59.29;99870.31;5136962;27;8849;-62
2022/08/03 00:12:47;;;;;;;;;10.60;10.60;;;;;20.05;58.94;99873.56;5136308;27;9490;-62
2022/08/03 00:15:14;;;;;;;;;7.60;7.00;;;;;20.02;59.06;99865.78;5137415;27;8933;-62
2022/08/03 00:17:43;;;;;;;;;7.20;7.00;;;;;20.00;59.03;99865.13;5137029;27;8833;-62
2022/08/03 00:20:20;;;;;;;;;7.00;7.00;;;;;19.98;59.32;99864.47;5136877;27;8817;-61
2022/08/03 00:22:47;;;;;;;;;2.00;2.00;;;;;19.96;59.29;99862.97;5134292;27;8852;-62
2022/08/03 00:25:15;;;;;;;;;6.20;6.20;;;;;19.94;59.15;99851.50;5133806;27;8910;-62
2022/08/03 00:27:43;;;;;;;;;7.00;6.20;;;;;19.95;59.59;99855.88;5133812;27;8818;-61
2022/08/03 00:30:11;;;;;;;;;5.00;5.00;;;;;19.95;59.10;99859.41;5134258;27;8852;-62
2022/08/03 00:32:41;;;;;;;;;2.40;2.40;;;;;19.93;59.11;99853.38;5133842;27;8854;-62
2022/08/03 00:35:11;;;;;;;;;8.00;7.00;;;;;19.92;58.97;99857.09;5136675;27;8838;-62
2022/08/03 00:37:59;;;;;;;;;7.00;5.00;;;;;19.90;59.09;99853.75;5136802;27;8826;-62
2022/08/03 00:40:27;;;;;;;;;8.80;7.60;;;;;19.88;59.18;99855.75;5136693;27;8862;-61
2022/08/03 00:42:55;;;;;;;;;8.00;7.80;;;;;19.86;59.32;99857.81;5136967;27;8869;-62
2022/08/03 00:45:23;;;;;;;;;10.00;8.40;;;;;19.85;59.54;99852.59;5136499;27;8826;-61
2022/08/03 00:47:51;;;;;;;;;5.80;5.00;;;;;19.83;59.42;99854.63;5136512;27;8996;-62
2022/08/03 00:50:18;;;;;;;;;7.80;7.20;;;;;19.80;59.30;99850.44;5136265;27;8951;-62
2022/08/03 00:52:46;;;;;;;;;4.00;2.80;;;;;19.78;59.71;99847.09;5134900;27;8951;-62
2022/08/03 00:55:14;;;;;;;;;9.20;9.20;;;;;19.74;59.56;99853.03;5134290;27;8829;-62
2022/08/03 00:57:42;;;;;;;;;2.00;2.00;;;;;19.71;59.60;99848.84;5136551;27;8956;-62
2022/08/03 01:00:09;;;;;;;;;8.00;7.40;;;;;19.67;59.84;99850.25;5136163;27;8818;-62
2022/08/03 01:02:37;;;;;;;;;6.60;6.60;;;;;19.65;59.77;99844.16;5135707;27;8944;-62
2022/08/03 01:05:06;;;;;;;;;5.00;5.00;;;;;19.63;60.27;99848.06;5136659;27;9491;-61
2022/08/03 01:07:34;;;;;;;;;6.20;6.20;;;;;19.61;59.68;99847.41;5135648;27;8841;-62
2022/08/03 01:10:02;;;;;;;;;8.40;8.40;;;;;19.59;59.84;99838.66;5136131;27;8818;-61
2022/08/03 01:12:30;;;;;;;;;6.60;5.80;;;;;19.57;59.75;99838.81;5136420;27;8954;-62
2022/08/03 01:14:57;;;;;;;;;7.60;7.40;;;;;19.57;59.88;99838.00;5136511;27;8960;-62
2022/08/03 01:17:25;;;;;;;;;7.00;5.00;;;;;19.54;59.66;99831.09;5136088;27;8837;-63
2022/08/03 01:19:53;;;;;;;;;9.60;8.00;;;;;19.52;60.40;99835.00;5135821;27;8849;-62
2022/08/03 01:22:21;;;;;;;;;7.00;7.00;;;;;19.49;60.20;99833.47;5136125;27;9522;-62
2022/08/03 01:24:48;;;;;;;;;5.20;4.80;;;;;19.48;60.43;99836.34;5136143;27;8829;-62
2022/08/03 01:27:16;;;;;;;;;7.60;7.60;;;;;19.46;60.11;99833.84;5135697;27;8838;-63
2022/08/03 01:29:44;;;;;;;;;8.00;7.20;;;;;19.44;60.37;99835.91;5136358;27;9260;-62
2022/08/03 01:32:12;;;;;;;;;2.40;2.40;;;;;19.42;60.22;99834.41;5136436;27;9482;-62
2022/08/03 01:34:59;;;;;;;;;5.40;5.40;;;;;19.40;60.20;99829.16;5136047;27;9550;-63
2022/08/03 01:37:28;;;;;;;;;6.60;4.80;;;;;19.40;60.52;99834.56;5135771;27;8810;-62
2022/08/03 01:39:55;;;;;;;;;6.20;5.80;;;;;19.38;60.56;99825.81;5136104;27;8834;-63
2022/08/03 01:42:23;;;;;;;;;7.00;5.80;;;;;19.37;60.52;99821.44;5136423;27;8853;-62
2022/08/03 01:44:51;;;;;;;;;6.20;6.20;;;;;19.36;60.56;99824.31;5136376;27;8886;-63
2022/08/03 01:47:18;;;;;;;;;8.00;7.20;;;;;19.33;60.47;99819.25;5136048;27;8859;-62
2022/08/03 01:49:46;;;;;;;;;4.60;4.60;;;;;19.32;60.57;99821.13;5136096;27;8825;-62
2022/08/03 01:52:14;;;;;;;;;5.20;5.20;;;;;19.31;60.28;99821.31;5135423;27;8906;-62
2022/08/03 01:54:42;;;;;;;;;12.60;9.60;;;;;19.28;61.05;99817.09;5135910;27;8834;-62
2022/08/03 01:57:10;;;;;;;;;8.20;8.20;;;;;19.28;61.03;99819.78;5135241;27;9535;-63
2022/08/03 01:59:38;;;;;;;;;7.00;7.00;;;;;19.26;61.00;99819.16;5136049;27;8838;-62
2022/08/03 02:02:05;;;;;;;;;7.00;5.20;;;;;19.25;60.68;99820.16;5135421;27;8830;-62
2022/08/03 02:04:53;;;;;;;;;9.20;8.80;;;;;19.23;61.02;99824.91;5135406;27;8834;-62
2022/08/03 02:07:21;;;;;;;;;7.00;7.00;;;;;19.20;61.24;99822.56;5135473;27;8833;-62
2022/08/03 02:09:49;;;;;;;;;7.40;7.40;;;;;19.16;61.14;99821.22;5136128;27;8834;-62
2022/08/03 02:12:16;;;;;;;;;6.40;6.20;;;;;19.12;61.16;99819.88;5135519;27;8856;-62
2022/08/03 02:14:45;;;;;;;;;0.40;0.40;;;;;19.09;61.45;99819.41;5133178;27;8834;-62
2022/08/03 02:17:12;;;;;;;;;7.20;7.00;;;;;19.06;61.55;99826.00;5132923;27;9026;-62
2022/08/03 02:19:40;;;;;;;;;8.20;7.60;;;;;19.03;60.95;99825.53;5132813;27;8821;-62
2022/08/03 02:22:08;;;;;;;;;7.40;6.80;;;;;19.00;61.44;99820.47;5133346;27;9490;-62
2022/08/03 02:24:36;;;;;;;;;5.80;5.80;;;;;18.97;62.03;99820.84;5135205;27;9511;-62
2022/08/03 02:27:04;;;;;;;;;7.40;7.40;;;;;18.95;61.43;99826.41;5135448;27;8818;-62
2022/08/03 02:29:32;;;;;;;;;5.20;4.80;;;;;18.93;61.32;99823.06;5134983;27;8941;-61
2022/08/03 02:32:07;;;;;;;;;6.80;6.80;;;;;18.91;61.90;99821.56;5135271;27;8825;-62
2022/08/03 02:34:35;;;;;;;;;9.80;9.20;;;;;18.90;61.50;99828.78;5134103;27;8964;-62
2022/08/03 02:37:02;;;;;;;;;9.20;9.00;;;;;18.87;61.64;99823.78;5136714;27;8840;-61
2022/08/03 02:39:30;;;;;;;;;6.20;6.20;;;;;18.84;61.67;99821.44;5138742;27;8813;-62
2022/08/03 02:42:01;;;;;;;;;7.40;7.40;;;;;18.84;62.12;99821.44;5138810;27;9670;-62
2022/08/03 02:44:40;;;;;;;;;8.00;7.00;;;;;18.83;61.88;99829.69;5139022;27;8814;-62
2022/08/03 02:47:08;;;;;;;;;7.60;7.00;;;;;18.81;61.97;99824.47;5138864;27;8952;-62
2022/08/03 02:49:36;;;;;;;;;10.00;9.60;;;;;18.79;61.76;99818.41;5138468;27;8829;-61
2022/08/03 02:52:18;;;;;;;;;7.40;6.60;;;;;18.78;62.29;99814.03;5138833;27;8853;-63
2022/08/03 02:54:45;;;;;;;;;7.40;7.40;;;;;18.75;61.86;99817.06;5138745;27;8861;-62
2022/08/03 02:57:13;;;;;;;;;7.60;6.40;;;;;18.73;62.42;99813.72;5138767;27;8976;-61
2022/08/03 02:59:41;;;;;;;;;5.00;4.80;;;;;18.72;61.95;99817.44;5138853;27;8855;-62
2022/08/03 03:02:09;;;;;;;;;9.60;9.40;;;;;18.68;61.79;99816.09;5137970;27;9517;-62
2022/08/03 03:04:37;;;;;;;;;6.40;6.40;;;;;18.67;62.35;99808.19;5138727;27;8818;-62
2022/08/03 03:07:21;;;;;;;;;8.00;7.80;;;;;18.64;62.07;99812.09;5138431;27;8848;-62
2022/08/03 03:09:49;;;;;;;;;7.00;5.60;;;;;18.62;62.53;99815.97;5138637;27;8829;-62
2022/08/03 03:12:16;;;;;;;;;10.00;10.00;;;;;18.59;62.58;99817.16;5138676;27;8872;-62
2022/08/03 03:14:44;;;;;;;;;14.60;11.20;;;;;18.58;62.50;99817.34;5137702;27;8905;-61
2022/08/03 03:17:12;;;;;;;;;8.80;7.80;;;;;18.57;62.32;99813.81;5137993;27;9000;-62
2022/08/03 03:19:40;;;;;;;;;10.20;10.00;;;;;18.55;62.63;99820.38;5138290;27;8841;-62
2022/08/03 03:22:08;;;;;;;;;10.00;9.60;;;;;18.54;62.33;99814.16;5138269;27;8829;-63
2022/08/03 03:24:36;;;;;;;;;11.60;11.20;;;;;18.54;62.54;99816.88;5137539;27;8826;-62
2022/08/03 03:27:03;;;;;;;;;11.60;11.60;;;;;18.53;62.79;99815.16;5137943;27;8814;-63
2022/08/03 03:29:31;;;;;;;;;8.20;8.20;;;;;18.53;62.29;99815.16;5138100;27;8825;-62
2022/08/03 03:32:05;;;;;;;;;6.20;6.20;;;;;18.53;62.84;99817.03;5138039;27;8821;-62
2022/08/03 03:34:35;;;;;;;;;11.80;10.40;;;;;18.51;62.72;99809.09;5137504;27;8948;-62
2022/08/03 03:37:03;;;;;;;;;10.40;9.20;;;;;18.49;62.89;99819.25;5137671;27;8976;-61
2022/08/03 03:39:31;;;;;;;;;12.00;12.00;;;;;18.47;63.10;99818.59;5137306;27;8960;-62
2022/08/03 03:41:59;;;;;;;;;10.00;7.00;;;;;18.47;62.55;99823.97;5138042;27;8850;-61
2022/08/03 03:44:27;;;;;;;;;10.00;9.60;;;;;18.46;63.18;99813.34;5138023;27;8829;-62
2022/08/03 03:46:55;;;;;;;;;8.80;8.40;;;;;18.45;62.64;99820.59;5118908;27;8829;-62
2022/08/03 03:49:23;;;;;;;;;9.20;9.00;;;;;18.45;62.90;99815.19;5137144;27;8925;-62
2022/08/03 03:51:51;;;;;;;;;10.00;9.00;;;;;18.45;62.51;99828.69;5136614;27;8837;-62
2022/08/03 03:54:18;;;;;;;;;9.00;9.00;;;;;18.46;62.68;99829.53;5137116;27;8817;-62
2022/08/03 03:56:46;;;;;;;;;10.20;10.00;;;;;18.44;62.49;99823.47;5137194;27;8952;-62
2022/08/03 03:59:14;;;;;;;;;11.00;10.60;;;;;18.44;62.87;99818.09;5137708;27;8845;-63
2022/08/03 04:01:42;;;;;;;;;9.00;8.60;;;;;18.42;63.19;99820.94;5137032;27;9008;-62
2022/08/03 04:12:25;;;;;;;;;10.80;10.00;;;;;18.28;63.32;99813.56;5136949;27;8929;-63
2022/08/03 04:14:53;;;;;;;;;10.20;9.00;;;;;18.25;63.06;99815.75;5137672;27;9553;-62
2022/08/03 04:17:20;;;;;;;;;10.00;9.20;;;;;18.25;63.17;99810.38;5136437;27;8821;-62
2022/08/03 04:19:49;;;;;;;;;8.20;8.20;;;;;18.28;63.25;99810.84;5136754;27;8818;-63
2022/08/03 04:22:17;;;;;;;;;7.80;7.80;;;;;18.29;63.06;99817.09;5137358;27;8817;-62
2022/08/03 04:24:45;;;;;;;;;7.40;7.00;;;;;18.28;63.43;99813.56;5136389;27;9506;-62
2022/08/03 04:27:12;;;;;;;;;7.40;7.40;;;;;18.27;63.44;99819.09;5135844;27;8988;-62
2022/08/03 04:29:40;;;;;;;;;8.60;7.00;;;;;18.24;63.19;99812.25;5135376;27;9533;-62
2022/08/03 04:32:14;;;;;;;;;6.00;4.40;;;;;18.22;63.29;99819.63;5135225;27;8821;-63
2022/08/03 04:34:43;;;;;;;;;9.00;9.00;;;;;18.23;63.85;99818.63;5135660;27;8870;-62
2022/08/03 04:37:10;;;;;;;;;9.40;9.00;;;;;18.25;63.64;99822.00;5134219;27;8841;-62
2022/08/03 04:39:38;;;;;;;;;4.20;4.20;;;;;18.27;63.42;99817.28;5133598;27;8849;-62
2022/08/03 04:42:06;;;;;;;;;11.80;10.40;;;;;18.34;63.21;99823.69;5133011;27;8987;-62
2022/08/03 04:44:35;;;;;;;;;9.80;9.40;;;;;18.40;63.07;99828.38;5134004;27;8837;-62
2022/08/03 04:47:03;;;;;;;;;13.00;9.00;;;;;18.46;62.78;99827.69;5134389;27;8937;-62
2022/08/03 04:49:31;;;;;;;;;11.60;10.40;;;;;18.53;62.57;99834.03;5132082;27;8963;-62
2022/08/03 04:51:59;;;;;;;;;12.00;12.00;;;;;18.61;62.87;99827.78;5132391;27;8822;-63
2022/08/03 04:54:26;;;;;;;;;11.80;11.40;;;;;18.68;62.15;99824.19;5133941;27;9263;-62
2022/08/03 04:56:54;;;;;;;;;11.80;11.00;;;;;18.77;62.01;99830.41;5133763;27;8842;-62
2022/08/03 04:59:22;;;;;;;;;9.80;9.80;;;;;18.88;62.34;99833.53;5134269;27;8964;-62
2022/08/03 05:01:50;;;;;;;;;12.20;11.00;;;;;18.98;62.01;99828.75;5135112;27;8840;-63
2022/08/03 05:04:19;;;;;;;;;7.00;6.60;;;;;19.09;61.43;99831.06;5135598;27;8882;-63
2022/08/03 05:06:47;;;;;;;;;8.80;8.00;;;;;19.17;61.47;99820.19;5135616;27;9511;-62
2022/08/03 05:09:22;;;;;;;;;9.20;7.60;;;;;19.28;60.92;99829.78;5135963;27;8930;-62
2022/08/03 05:12:10;;;;;;;;;13.00;12.00;;;;;19.35;61.16;99828.03;5133633;27;8922;-62
2022/08/03 05:14:38;;;;;;;;;9.80;9.60;;;;;19.41;61.18;99828.16;5134425;27;8822;-62
2022/08/03 05:17:06;;;;;;;;;9.00;9.00;;;;;19.52;60.84;99826.88;5135029;27;8841;-62
2022/08/03 05:19:33;;;;;;;;;10.60;10.60;;;;;19.63;60.77;99824.59;5135409;27;8968;-62
2022/08/03 05:22:02;;;;;;;;;11.20;10.00;;;;;19.78;60.86;99825.47;5135592;27;8824;-62
2022/08/03 05:24:29;;;;;;;;;7.00;6.00;;;;;19.95;60.01;99818.88;5135245;27;8840;-62
2022/08/03 05:26:57;;;;;;;;;8.00;8.00;;;;;20.12;60.23;99825.84;5135795;27;8842;-63
2022/08/03 05:29:25;;;;;;;;;8.80;7.60;;;;;20.27;59.28;99820.41;5135490;27;8887;-62
2022/08/03 05:31:53;;;;;;;;;9.00;7.80;;;;;20.41;59.51;99819.59;5136031;27;8837;-62
2022/08/03 05:34:21;;;;;;;;;7.60;7.20;;;;;20.55;59.29;99816.03;5135721;27;8829;-61
2022/08/03 05:36:48;;;;;;;;;8.80;8.80;;;;;20.69;59.30;99813.28;5135018;27;8951;-62
2022/08/03 05:39:16;;;;;;;;;10.40;9.60;;;;;20.80;58.90;99815.53;5135499;27;8876;-63
2022/08/03 05:41:44;;;;;;;;;8.00;7.40;;;;;20.87;58.91;99813.78;5135578;27;8857;-62
2022/08/03 05:44:12;;;;;;;;;12.00;12.00;;;;;20.95;58.76;99819.06;5135453;27;8814;-63
2022/08/03 05:46:40;;;;;;;;;10.00;8.00;;;;;21.03;58.44;99811.66;5135921;27;9483;-63
2022/08/03 05:49:08;;;;;;;;;10.00;8.00;;;;;21.17;58.22;99816.19;5135347;27;8961;-62
2022/08/03 05:51:36;;;;;;;;;8.00;7.40;;;;;21.32;57.94;99811.53;5135141;27;8840;-62
2022/08/03 05:54:03;;;;;;;;;5.40;5.40;;;;;21.43;57.67;99818.31;5134237;27;8940;-62
2022/08/03 05:56:31;;;;;;;;;3.60;3.60;;;;;21.57;57.60;99817.41;5134774;27;8951;-63
2022/08/03 05:58:59;;;;;;;;;6.00;6.00;;;;;21.66;57.27;99822.53;5134903;27;8822;-63
2022/08/03 06:01:46;;;;;;;;;8.80;7.00;;;;;21.81;57.45;99819.72;5133705;27;8838;-63
2022/08/03 06:04:15;;;;;;;;;6.80;6.60;;;;;21.95;56.97;99818.81;5134633;27;8849;-63
2022/08/03 06:06:43;;;;;;;;;7.40;5.20;;;;;22.10;57.06;99816.81;5133668;27;8952;-63
2022/08/03 06:09:10;;;;;;;;;5.40;5.40;;;;;22.22;56.73;99818.78;5134239;27;8825;-63
2022/08/03 06:11:39;;;;;;;;;8.20;7.80;;;;;22.34;56.25;99819.06;5136408;27;9514;-62
2022/08/03 06:14:06;;;;;;;;;4.80;4.80;;;;;22.45;56.31;99816.66;5138879;27;8910;-63
2022/08/03 06:16:34;;;;;;;;;8.00;8.00;;;;;22.58;56.06;99810.44;5137225;27;8837;-63
2022/08/03 06:19:02;;;;;;;;;10.40;8.40;;;;;22.71;55.93;99818.66;5136271;27;8852;-62
2022/08/03 06:21:30;;;;;;;;;4.00;4.00;;;;;22.81;56.19;99817.25;5136862;27;8955;-62
2022/08/03 06:23:58;;;;;;;;;7.20;6.00;;;;;22.88;55.92;99817.25;5138261;27;8833;-62
2022/08/03 06:26:29;;;;;;;;;7.60;6.40;;;;;22.89;56.13;99813.50;5138307;27;8852;-62
2022/08/03 06:28:56;;;;;;;;;6.00;6.00;;;;;22.93;55.85;99820.22;5138428;27;8829;-62
2022/08/03 06:31:28;;;;;;;;;9.00;8.40;;;;;22.99;55.83;99812.06;5138006;27;8832;-63
2022/08/03 06:34:00;;;;;;;;;9.00;8.00;;;;;23.09;55.87;99814.41;5137961;27;8838;-62
2022/08/03 06:36:49;;;;;;;;;6.00;6.00;;;;;23.23;55.29;99808.00;5136731;27;8841;-63
2022/08/03 06:39:20;;;;;;;;;8.60;7.20;;;;;23.35;55.51;99814.47;5136661;27;8945;-62
2022/08/03 06:41:50;;;;;;;;;6.20;6.20;;;;;23.49;54.91;99810.75;5136587;27;9728;-63
2022/08/03 06:44:17;;;;;;;;;8.60;6.20;;;;;23.59;55.15;99820.16;5136907;27;8879;-63
2022/08/03 06:46:46;;;;;;;;;6.00;6.00;;;;;23.74;54.38;99815.38;5137172;27;8909;-63
2022/08/03 06:49:14;;;;;;;;;4.60;4.60;;;;;23.89;54.91;99815.19;5137460;27;8853;-63
2022/08/03 06:51:42;;;;;;;;;7.20;7.00;;;;;24.01;54.27;99819.78;5137604;27;8906;-63
2022/08/03 06:54:30;;;;;;;;;5.80;5.80;;;;;24.13;54.31;99809.09;5137622;27;9523;-63
2022/08/03 06:57:00;;;;;;;;;7.80;6.40;;;;;24.27;53.92;99819.75;5136547;27;8832;-63
2022/08/03 06:59:28;;;;;;;;;5.80;5.80;;;;;24.42;54.25;99812.16;5137035;27;9134;-63
2022/08/03 07:02:15;;;;;;;;;6.00;6.00;;;;;24.58;53.53;99819.91;5136897;27;8830;-63
2022/08/03 07:04:46;;;;;;;;;6.00;6.00;;;;;24.70;53.55;99820.91;5136883;27;8837;-63
2022/08/03 07:07:14;;;;;;;;;6.60;6.20;;;;;24.85;52.98;99820.63;5136564;27;9035;-63
2022/08/03 07:09:41;;;;;;;;;6.40;5.20;;;;;24.98;53.28;99820.56;5135441;27;9594;-63
2022/08/03 07:12:23;;;;;;;;;7.80;7.00;;;;;25.14;53.16;99825.53;5135370;27;8862;-63
2022/08/03 07:14:51;;;;;;;;;5.00;5.00;;;;;25.31;52.55;99826.72;5136360;27;8849;-64
2022/08/03 07:17:26;;;;;;;;;5.00;5.00;;;;;25.49;52.71;99821.38;5134923;27;8829;-63
2022/08/03 07:19:54;;;;;;;;;5.00;5.00;;;;;25.64;51.97;99820.81;5135108;27;9192;-62
2022/08/03 07:22:21;;;;;;;;;3.00;3.00;;;;;25.79;51.81;99828.69;5135303;27;8833;-63
2022/08/03 07:24:49;;;;;;;;;6.00;6.00;;;;;25.92;51.48;99821.28;5136788;27;8968;-63
2022/08/03 07:27:17;;;;;;;;;7.00;6.60;;;;;26.04;51.74;99818.63;5136485;27;8864;-62
2022/08/03 07:29:45;;;;;;;;;6.00;6.00;;;;;26.14;51.54;99816.22;5137213;27;8830;-62
2022/08/03 07:32:13;;;;;;;;;5.00;5.00;;;;;26.29;51.71;99820.28;5135942;27;9001;-63
2022/08/03 07:34:41;;;;;;;;;3.40;3.40;;;;;26.46;51.49;99818.63;5135706;27;8853;-63
2022/08/03 07:37:09;;;;;;;;;4.20;3.00;;;;;26.66;50.59;99824.75;5136358;27;8829;-62
2022/08/03 07:39:36;;;;;;;;;4.80;4.20;;;;;26.84;50.41;99819.25;5135842;27;8926;-63
2022/08/03 07:42:04;;;;;;;;;3.00;3.00;;;;;27.03;50.03;99820.88;5135330;27;9011;-63
2022/08/03 07:44:32;;;;;;;;;3.00;3.00;;;;;27.21;49.46;99822.78;5136192;27;8845;-64
2022/08/03 07:46:59;;;;;;;;;5.20;4.00;;;;;27.37;49.64;99822.97;5136436;27;9549;-63
2022/08/03 07:49:30;;;;;;;;;1.20;1.20;;;;;27.51;49.76;99818.97;5135904;27;8829;-63
2022/08/03 07:54:39;;;;;;;;;2.40;2.00;;;;;27.80;48.92;99820.88;5102949;27;8853;-63
2022/08/03 07:57:07;;;;;;;;;4.00;4.00;;;;;27.95;48.31;99820.41;5135910;27;8981;-62
2022/08/03 07:59:36;;;;;;;;;3.00;2.80;;;;;28.07;48.56;99824.81;5135806;27;8862;-63
2022/08/03 08:02:24;;;;;;;;;3.40;3.00;;;;;28.21;48.34;99830.91;5134745;27;8846;-63
2022/08/03 08:04:52;;;;;;;;;4.00;4.00;;;;;28.28;47.78;99832.44;5135553;27;8902;-63
2022/08/03 08:07:20;;;;;;;;;4.60;4.00;;;;;28.33;47.85;99818.88;5135490;27;8841;-63
2022/08/03 08:09:48;;;;;;;;;4.20;4.20;;;;;28.39;47.68;99817.97;5135004;27;8922;-63
2022/08/03 08:12:15;;;;;;;;;3.20;3.20;;;;;28.51;47.33;99832.47;5133834;27;8849;-63
2022/08/03 08:14:45;;;;;;;;;3.80;3.20;;;;;28.58;46.73;99822.22;5134755;27;8818;-63
2022/08/03 08:17:13;;;;;;;;;4.00;4.00;;;;;28.65;47.19;99820.16;5135050;27;8818;-63
2022/08/03 08:19:41;;;;;;;;;1.80;1.80;;;;;28.69;46.89;99821.38;5134461;27;9186;-63
2022/08/03 08:22:18;;;;;;;;;5.80;5.00;;;;;28.77;47.08;99826.47;5135173;27;8826;-64
2022/08/03 08:24:56;;;;;;;;;4.00;3.20;;;;;28.87;46.58;99818.44;5133921;27;8960;-62
2022/08/03 08:27:24;;;;;;;;;3.80;3.40;;;;;28.94;46.28;99813.69;5133481;27;8838;-63
2022/08/03 08:29:52;;;;;;;;;7.60;6.80;;;;;29.04;46.07;99819.38;5133917;27;8968;-63
2022/08/03 08:32:25;;;;;;;;;4.00;4.00;;;;;29.13;46.30;99819.84;5135073;27;8961;-63
2022/08/03 08:34:53;;;;;;;;;4.20;3.80;;;;;29.19;45.81;99825.16;5134320;27;8960;-62
2022/08/03 08:37:21;;;;;;;;;3.00;2.80;;;;;29.16;45.68;99820.19;5134277;27;8845;-63
2022/08/03 08:39:49;;;;;;;;;3.00;3.00;;;;;29.18;45.71;99817.16;5134872;27;8914;-62
2022/08/03 08:42:16;;;;;;;;;3.00;3.00;;;;;29.21;45.77;99823.00;5135068;27;9109;-63
2022/08/03 08:44:45;;;;;;;;;4.00;3.00;;;;;29.32;46.07;99813.06;5135656;27;8822;-63
2022/08/03 08:47:12;;;;;;;;;4.00;4.00;;;;;29.44;45.44;99822.09;5135253;27;8975;-63
2022/08/03 08:49:41;;;;;;;;;3.00;3.00;;;;;29.56;45.58;99814.63;5135113;27;9330;-63
2022/08/03 08:52:29;;;;;;;;;6.80;4.80;;;;;29.68;44.79;99813.50;5133459;27;8834;-63
2022/08/03 08:54:58;;;;;;;;;2.80;2.80;;;;;29.77;45.37;99809.25;5132986;27;8833;-63
2022/08/03 08:57:26;;;;;;;;;3.00;2.40;;;;;29.73;44.91;99816.31;5132653;27;8838;-63
2022/08/03 09:00:10;;;;;;;;;3.40;3.40;;;;;29.61;44.96;99812.84;5132772;27;8846;-64
2022/08/03 09:02:38;;;;;;;;;3.00;2.00;;;;;29.53;45.34;99832.47;5134196;27;8833;-63
2022/08/03 09:05:06;;;;;;;;;2.00;2.00;;;;;29.46;46.02;99822.66;5134140;27;8984;-63
2022/08/03 09:07:34;;;;;;;;;3.40;3.00;;;;;29.35;45.44;99821.63;5134331;27;8833;-63
2022/08/03 09:10:04;;;;;;;;;2.00;2.00;;;;;29.28;46.10;99826.44;5134308;27;8821;-63
2022/08/03 09:12:40;;;;;;;;;3.00;2.00;;;;;29.25;46.19;99824.19;5134857;27;8975;-63
2022/08/03 09:15:09;;;;;;;;;2.00;2.00;;;;;29.24;45.69;99825.28;5135616;27;8921;-62
2022/08/03 09:17:44;;;;;;;;;2.40;2.00;;;;;29.34;45.75;99822.72;5135705;27;8843;-62
2022/08/03 09:20:17;;;;;;;;;2.40;2.00;;;;;29.49;45.27;99824.94;5135246;27;8849;-62
2022/08/03 09:22:44;;;;;;;;;2.60;2.60;;;;;29.61;44.77;99815.56;5135413;27;8821;-63
2022/08/03 09:25:12;;;;;;;;;2.60;2.40;;;;;29.74;44.94;99815.25;5135038;27;8842;-62
2022/08/03 09:27:51;;;;;;;;;2.80;2.60;;;;;29.90;45.08;99822.69;5134621;27;9527;-63
2022/08/03 09:30:19;;;;;;;;;3.80;3.00;;;;;30.06;44.64;99821.84;5134823;27;8837;-63
2022/08/03 09:33:01;;;;;;;;;2.40;2.40;;;;;30.25;44.40;99819.69;5134600;27;8868;-62
2022/08/03 09:35:29;;;;;;;;;3.80;3.60;;;;;30.27;44.30;99823.84;5134189;27;9518;-63
2022/08/03 09:38:17;;;;;;;;;4.00;3.00;;;;;30.19;43.86;99812.44;5134035;27;8826;-63
2022/08/03 09:40:45;;;;;;;;;3.00;3.00;;;;;30.30;43.52;99812.34;5133888;27;8980;-63
2022/08/03 09:43:13;;;;;;;;;3.60;3.00;;;;;30.50;43.08;99815.41;5133059;27;8833;-63
2022/08/03 09:45:41;;;;;;;;;3.00;3.00;;;;;30.81;42.46;99803.75;5133856;27;8915;-62
2022/08/03 09:48:09;;;;;;;;;0.40;0.40;;;;;31.21;42.32;99809.75;5136716;27;8921;-62
2022/08/03 09:50:37;;;;;;;;;2.00;2.00;;;;;31.59;41.31;99801.34;5136623;27;8837;-63
2022/08/03 09:53:23;;;;;;;;;3.60;2.80;;;;;31.77;40.85;99809.25;5136604;27;8814;-63
2022/08/03 09:55:51;;;;;;;;;1.80;1.80;;;;;31.96;40.65;99808.63;5136369;27;8972;-63
2022/08/03 09:58:39;;;;;;;;;2.60;2.20;;;;;32.31;39.58;99810.84;5135578;27;8846;-62
2022/08/03 10:01:07;;;;;;;;;1.80;1.80;;;;;32.69;39.90;99811.31;5137144;27;8926;-63
2022/08/03 10:03:52;;;;;;;;;2.60;2.60;;;;;33.19;38.67;99803.28;5137560;27;8837;-62
2022/08/03 10:06:31;;;;;;;;;3.00;3.00;;;;;33.60;38.57;99804.22;5139126;27;8838;-63
2022/08/03 10:08:58;;;;;;;;;1.00;1.00;;;;;33.90;37.79;99798.75;5137497;27;8842;-63
2022/08/03 10:11:26;;;;;;;;;2.40;1.00;;;;;34.29;37.16;99806.19;5134417;27;8929;-63
2022/08/03 10:13:54;;;;;;;;;1.00;1.00;;;;;34.69;36.81;99808.03;5135124;27;8925;-63
2022/08/03 10:16:28;;;;;;;;;2.00;2.00;;;;;35.12;36.61;99807.34;5135923;27;8833;-63
2022/08/03 10:18:56;;;;;;;;;2.80;2.20;;;;;35.50;35.67;99803.84;5135197;27;8834;-62
2022/08/03 10:21:24;;;;;;;;;2.60;2.40;;;;;35.73;36.09;99800.38;5134558;27;8924;-63
2022/08/03 10:23:51;;;;;;;;;3.00;2.60;;;;;36.03;35.71;99796.22;5135668;27;8895;-63
2022/08/03 10:26:20;;;;;;;;;2.60;2.60;;;;;36.36;35.50;99803.72;5135682;27;8833;-62
2022/08/03 10:28:47;;;;;;;;;4.00;4.00;;;;;36.62;34.97;99801.50;5135502;27;8960;-62
2022/08/03 10:31:15;;;;;;;;;3.00;2.80;;;;;36.99;34.24;99796.06;5135946;27;8844;-62
2022/08/03 10:33:43;;;;;;;;;3.00;3.00;;;;;37.29;34.36;99795.66;5137172;27;8842;-63
2022/08/03 10:36:19;;;;;;;;;2.80;2.80;;;;;37.34;34.03;99793.66;5137904;27;8868;-63
2022/08/03 10:38:46;;;;;;;;;3.80;3.20;;;;;37.47;33.97;99790.13;5138606;27;8821;-64
2022/08/03 10:41:14;;;;;;;;;1.80;1.80;;;;;37.79;33.66;99787.41;5137877;27;8853;-63
2022/08/03 10:43:42;;;;;;;;;3.80;3.00;;;;;38.15;33.48;99787.69;5137305;27;8960;-63
2022/08/03 10:46:10;;;;;;;;;3.60;3.60;;;;;38.38;32.61;99783.91;5137395;27;8837;-63
2022/08/03 10:48:38;;;;;;;;;3.80;3.80;;;;;38.59;33.13;99777.66;5137022;27;8833;-62
2022/08/03 10:51:06;;;;;;;;;1.20;1.20;;;;;38.74;32.85;99773.75;5135608;27;8813;-63
2022/08/03 10:53:34;;;;;;;;;3.20;3.20;;;;;38.71;32.79;99777.97;5134529;27;8904;-63
2022/08/03 10:59:07;;;;;;;;;1.80;1.40;;;;;39.19;31.84;99770.81;5133930;27;9009;-63
2022/08/03 11:01:37;;;;;;;;;2.60;2.60;;;;;39.34;32.29;99764.94;5135072;27;8837;-63
2022/08/03 11:04:25;;;;;;;;;5.80;3.40;;;;;39.55;31.53;99759.69;5134311;27;9664;-63
2022/08/03 11:06:53;;;;;;;;;2.20;2.20;;;;;39.60;31.68;99766.00;5133667;27;9611;-60
2022/08/03 11:09:21;;;;;;;;;3.00;3.00;;;;;39.68;31.40;99756.06;5135357;27;8942;-62
2022/08/03 11:11:49;;;;;;;;;3.00;2.80;;;;;39.08;32.58;99763.00;5135514;27;8985;-63
2022/08/03 11:14:17;;;;;;;;;3.80;3.80;;;;;38.63;33.26;99761.16;5135058;27;8829;-64
2022/08/03 11:16:45;;;;;;;;;3.60;3.00;;;;;38.58;33.02;99755.69;5134926;27;8837;-63
2022/08/03 11:19:13;;;;;;;;;2.40;2.00;;;;;38.75;32.18;99753.91;5134709;27;8833;-63
2022/08/03 11:21:41;;;;;;;;;2.20;1.80;;;;;39.12;31.44;99752.88;5135713;27;8838;-63
2022/08/03 11:24:08;;;;;;;;;3.20;2.20;;;;;39.37;31.13;99750.34;5133342;27;8833;-63
2022/08/03 11:26:36;;;;;;;;;0.00;0.00;;;;;39.96;30.69;99747.22;5134908;27;8857;-63
2022/08/03 11:29:05;;;;;;;;;2.40;2.00;;;;;40.61;29.59;99751.06;5133852;27;8833;-62
2022/08/03 11:31:32;;;;;;;;;3.00;3.00;;;;;40.16;31.16;99757.91;5133637;27;9004;-63
2022/08/03 11:34:18;;;;;;;;;1.00;1.00;;;;;39.83;31.04;99753.72;5133546;27;9273;-62
2022/08/03 11:36:46;;;;;;;;;3.40;3.40;;;;;39.89;31.04;99746.84;5133762;27;8910;-63
2022/08/03 11:39:13;;;;;;;;;2.00;2.00;;;;;40.25;30.46;99750.38;5132859;27;8837;-63
2022/08/03 11:41:43;;;;;;;;;1.00;1.00;;;;;40.22;30.47;99756.63;5133586;27;9802;-63
2022/08/03 11:44:11;;;;;;;;;2.60;2.60;;;;;40.35;29.91;99750.09;5134467;27;9599;-63
2022/08/03 11:46:39;;;;;;;;;2.20;2.20;;;;;40.54;30.19;99758.25;5135004;27;8842;-63
2022/08/03 11:49:07;;;;;;;;;2.00;1.80;;;;;40.46;29.94;99757.06;5134722;27;8834;-64
2022/08/03 11:51:38;;;;;;;;;0.00;0.00;;;;;40.20;30.02;99758.06;5134128;27;9558;-62
2022/08/03 11:54:06;;;;;;;;;3.00;3.00;;;;;40.38;30.33;99757.84;5135105;27;8854;-62
2022/08/03 11:56:34;;;;;;;;;2.20;2.20;;;;;40.83;29.30;99750.97;5135114;27;8898;-63
2022/08/03 11:59:03;;;;;;;;;1.20;1.20;;;;;41.36;29.20;99748.81;5134476;27;8960;-63
2022/08/03 12:01:47;;;;;;;;;3.20;2.00;;;;;41.83;28.34;99753.44;5134934;27;8867;-63
2022/08/03 12:04:16;;;;;;;;;3.00;2.00;;;;;42.07;27.80;99748.09;5136532;27;8841;-63